< < Back
Terminal Aerodrome Forecast


Current Version              Previous Versions:   1  2  3  4  5  6  7  8  9  

Terminal Aerodrome Forecast

076
FTUS42 KTAE 232100 AAC
TAFTLH
TAF AMD
KTLH 232120Z 2321/2418 17012G18KT 5SM -RA BR VCTS OVC007CB
     FM240300 19010KT 5SM BR OVC010
     FM240800 19008KT 2SM BR OVC003
     FM241200 26008KT P6SM OVC010
     FM241600 26008KT P6SM BKN030=



Latest METAR

519
SAUS80 KWBC 240800 RRC
MTRTLH
METAR KTLH 240753Z AUTO 19006KT 10SM OVC005 21/19 RMK AO2 SLPNO
T02110189 $


USA.gov is the U.S. government's official web portal to all federal, state and local government web resources and services.